Christos Vi — SVA4023 — position and weather

sailwx.info

Track history (hours):
 
Tides and Currents Weather Stations Pressure Air Temp Water Temp Dewpoint Dewpoint Depression Visibility Wind Speed Wind Dir Waves Ship Positions

Christos Vi

Last reported at 2017-Nov-23 11:00 UTC. Time now 2017-Nov-23 11:28 UTC.
Position N 38°02' E 023°36'.

Length 18 m; draft 2.5 m.

Type: Tug. MMSI: 239564600.

Date/timePositionNaut miles runAvg speedWind from/ knotsBaromVisibWave heightAir tempDewpointWater temp
2017-Nov-23 11:00N 38°02' E 023°36'0 0.1
2017-Nov-23 10:30N 38°02' E 023°36'4 7.5
2017-Nov-23 10:00N 38°02' E 023°31'2 2.8
2017-Nov-23 09:18N 38°01' E 023°33'2 6.0
2017-Nov-23 08:56N 38°01' E 023°36'1 1.7
2017-Nov-23 08:31N 38°01' E 023°35'4 6.7
2017-Nov-23 07:58N 38°02' E 023°31'0 0.0
2017-Nov-23 07:25N 38°02' E 023°31'0 0.0
2017-Nov-23 06:58N 38°02' E 023°31'0 0.0
2017-Nov-23 06:28N 38°02' E 023°31'0 0.0
2017-Nov-23 05:58N 38°02' E 023°31'0 0.9
2017-Nov-23 05:30N 38°02' E 023°30'0 0.3
2017-Nov-23 04:11N 38°02' E 023°31'0 1.3
2017-Nov-23 03:55N 38°02' E 023°30'0 0.1
2017-Nov-23 00:34N 38°02' E 023°31'0 7.6
2017-Nov-23 00:30N 38°02' E 023°31'3 6.7
2017-Nov-22 23:59N 38°02' E 023°36'0 0.1
2017-Nov-22 23:29N 38°02' E 023°36'0 0.0
2017-Nov-22 22:59N 38°02' E 023°36'0 0.0
2017-Nov-22 22:29N 38°02' E 023°36'3 7.2
2017-Nov-22 22:00N 38°02' E 023°31'1 0.8
2017-Nov-22 20:55N 38°02' E 023°31'0 0.0
2017-Nov-22 20:25N 38°02' E 023°31'0 1.0
2017-Nov-22 20:00N 38°02' E 023°31'  
2017-Nov-20 00:29N 38°02' E 023°36'0 0.0
2017-Nov-19 23:59N 38°02' E 023°36'0 0.0
2017-Nov-19 23:29N 38°02' E 023°36'0 0.0
2017-Nov-19 22:59N 38°02' E 023°36'0 0.0
2017-Nov-19 22:29N 38°02' E 023°36'0 0.1
2017-Nov-19 21:56N 38°02' E 023°36'0 0.0
2017-Nov-19 17:36N 38°02' E 023°36'0 0.0
2017-Nov-19 17:30N 38°02' E 023°36'0 0.0
2017-Nov-19 17:00N 38°02' E 023°36'0 0.0
2017-Nov-19 16:30N 38°02' E 023°36'0 0.0
2017-Nov-19 16:00N 38°02' E 023°36'0 0.0
2017-Nov-19 15:30N 38°02' E 023°36'0 0.0
2017-Nov-19 15:00N 38°02' E 023°36'0 0.1
2017-Nov-19 08:41N 38°01' E 023°35'0 0.0
2017-Nov-19 00:15N 38°02' E 023°36'0 0.0
2017-Nov-18 16:25N 38°02' E 023°36'0 0.0
2017-Nov-18 15:17N 38°02' E 023°36'0 0.0
2017-Nov-18 10:52N 38°02' E 023°36'0 0.7
2017-Nov-18 10:27N 38°02' E 023°35'0 0.1
2017-Nov-18 09:15N 38°02' E 023°36'0 0.7
2017-Nov-18 09:00N 38°02' E 023°36'0 0.0
2017-Nov-18 02:42N 38°02' E 023°36'0 0.0
2017-Nov-17 11:07N 38°02' E 023°36'0 0.0
2017-Nov-17 10:58N 38°02' E 023°36'0 0.0
2017-Nov-17 10:28N 38°02' E 023°36'0 0.0
2017-Nov-17 09:58N 38°02' E 023°36'0 0.0
2017-Nov-17 09:28N 38°02' E 023°36'0 0.0
2017-Nov-17 08:55N 38°02' E 023°36'0 0.0
2017-Nov-17 08:25N 38°02' E 023°36'0 0.0
2017-Nov-17 08:00N 38°02' E 023°36'0 0.0
2017-Nov-17 07:30N 38°02' E 023°36'0 0.0
2017-Nov-17 07:00N 38°02' E 023°36'0 0.0
2017-Nov-17 06:30N 38°02' E 023°36'0 0.1
2017-Nov-17 05:58N 38°02' E 023°36'0 0.0
2017-Nov-17 05:29N 38°02' E 023°36'0 0.1
2017-Nov-17 04:58N 38°02' E 023°36'0 0.0
2017-Nov-17 04:28N 38°02' E 023°36'0 0.0
2017-Nov-17 03:58N 38°02' E 023°36'0 0.0
2017-Nov-17 03:28N 38°02' E 023°36'0 0.0
2017-Nov-17 02:58N 38°02' E 023°36'0 0.0
2017-Nov-17 02:25N 38°02' E 023°36'0 0.0
2017-Nov-17 01:58N 38°02' E 023°36'0 0.0
2017-Nov-17 01:30N 38°02' E 023°36'0 0.2
2017-Nov-17 00:54N 38°02' E 023°36'0 0.1
2017-Nov-17 00:29N 38°02' E 023°36'0 0.2
2017-Nov-16 23:59N 38°02' E 023°36'0 0.2
2017-Nov-16 23:30N 38°02' E 023°36'0 0.1
2017-Nov-16 22:59N 38°02' E 023°36'0 0.2
2017-Nov-16 22:28N 38°02' E 023°36'0 0.1
2017-Nov-16 20:56N 38°02' E 023°36'0 0.0
2017-Nov-16 20:26N 38°02' E 023°36'0 0.1
2017-Nov-16 19:42N 38°02' E 023°36'0 0.1
2017-Nov-16 18:58N 38°02' E 023°36'0 0.0
2017-Nov-16 18:25N 38°02' E 023°36'0 0.7
2017-Nov-16 17:56N 38°01' E 023°35'0 0.7
2017-Nov-16 17:29N 38°02' E 023°36'0 0.0
2017-Nov-16 16:59N 38°02' E 023°36'0 0.0
2017-Nov-16 16:26N 38°02' E 023°36'0 0.2
2017-Nov-16 15:57N 38°02' E 023°36'0 0.3
2017-Nov-16 15:29N 38°02' E 023°36'0 0.0
2017-Nov-16 14:59N 38°02' E 023°36'0 0.0
2017-Nov-16 14:29N 38°02' E 023°36'0 0.0
2017-Nov-16 13:59N 38°02' E 023°36'0 0.4
2017-Nov-16 13:22N 38°02' E 023°35'0 0.5
2017-Nov-16 12:58N 38°02' E 023°36'0 0.0
2017-Nov-16 12:28N 38°02' E 023°36'0 0.0
2017-Nov-16 11:55N 38°02' E 023°36'0 0.0
2017-Nov-16 11:28N 38°02' E 023°36'0 0.1
2017-Nov-16 11:00N 38°02' E 023°36'0 0.0
2017-Nov-16 10:30N 38°02' E 023°36'0 0.0
2017-Nov-16 09:57N 38°02' E 023°36'0 0.3
2017-Nov-16 09:26N 38°02' E 023°36'0 0.3
2017-Nov-16 08:55N 38°02' E 023°36'0 0.0
2017-Nov-16 08:28N 38°02' E 023°36'0 0.2
2017-Nov-16 08:00N 38°02' E 023°36'0 0.2
2017-Nov-16 07:25N 38°02' E 023°36'0 0.2
2017-Nov-16 06:30N 38°02' E 023°36'0 0.1
2017-Nov-16 05:01N 38°02' E 023°36'0 0.1
2017-Nov-16 04:55N 38°02' E 023°36'0 0.0
2017-Nov-16 04:27N 38°02' E 023°36'0 0.0
2017-Nov-16 04:00N 38°02' E 023°36'0 0.0
2017-Nov-16 03:30N 38°02' E 023°36'0 0.0
2017-Nov-16 03:00N 38°02' E 023°36'0 0.0
2017-Nov-16 02:30N 38°02' E 023°36'0 0.0
2017-Nov-16 02:00N 38°02' E 023°36'0 0.0
2017-Nov-16 01:30N 38°02' E 023°36'0 0.0
2017-Nov-16 01:00N 38°02' E 023°36'0 0.0
2017-Nov-16 00:30N 38°02' E 023°36'0 0.0
2017-Nov-16 00:00N 38°02' E 023°36'0 0.0
2017-Nov-15 23:30N 38°02' E 023°36'0 0.0
2017-Nov-15 23:00N 38°02' E 023°36'0 0.0
2017-Nov-15 22:30N 38°02' E 023°36'0 0.0
2017-Nov-15 22:00N 38°02' E 023°36'0 0.0
2017-Nov-15 21:30N 38°02' E 023°36'0 0.0
2017-Nov-15 21:00N 38°02' E 023°36'0 0.1
2017-Nov-15 20:28N 38°02' E 023°36'0 0.1
2017-Nov-15 19:58N 38°02' E 023°36'0 0.0
2017-Nov-15 19:28N 38°02' E 023°36'0 0.0
2017-Nov-15 18:55N 38°02' E 023°36'0 0.0
2017-Nov-15 18:28N 38°02' E 023°36'0 0.0
2017-Nov-15 17:58N 38°02' E 023°36'0 0.0
2017-Nov-15 17:01N 38°02' E 023°36'0 0.0
2017-Nov-15 16:58N 38°02' E 023°36'0 0.0
2017-Nov-15 16:28N 38°02' E 023°36'0 0.0
2017-Nov-14 16:12N 38°02' E 023°36'0 0.0
2017-Nov-14 16:00N 38°02' E 023°36'0 0.0
2017-Nov-14 15:21N 38°02' E 023°36'0 0.2
2017-Nov-14 15:00N 38°02' E 023°36'0 0.1
2017-Nov-14 14:30N 38°02' E 023°36'0 0.0
2017-Nov-14 14:00N 38°02' E 023°36'0 0.2
2017-Nov-14 13:21N 38°02' E 023°36'0 0.2
2017-Nov-14 12:58N 38°02' E 023°36'3 5.9
2017-Nov-14 12:30N 38°02' E 023°32'1 2.2
2017-Nov-14 11:59N 38°02' E 023°31'0 0.0
2017-Nov-14 11:29N 38°02' E 023°31'0 0.0
2017-Nov-14 10:59N 38°02' E 023°31'0 0.0
2017-Nov-14 10:29N 38°02' E 023°31'1 1.2
2017-Nov-14 09:58N 38°02' E 023°32'3 4.7
2017-Nov-14 09:17N 38°01' E 023°36'0 0.4
2017-Nov-14 08:52N 38°02' E 023°36'0 0.2
2017-Nov-14 08:14N 38°01' E 023°35'0 0.0
2017-Nov-14 08:00N 38°01' E 023°35'0 0.6
2017-Nov-14 07:27N 38°02' E 023°36'0 0.0
2017-Nov-14 06:57N 38°02' E 023°36'0 0.0
2017-Nov-14 06:30N 38°02' E 023°36'1 1.4
2017-Nov-14 05:58N 38°02' E 023°35'3 7.2
2017-Nov-14 05:30N 38°02' E 023°30'0 0.2
2017-Nov-14 04:59N 38°02' E 023°31'0 0.0
2017-Nov-14 04:29N 38°02' E 023°31'0 0.0
2017-Nov-14 03:59N 38°02' E 023°31'0 0.0
2017-Nov-14 03:29N 38°02' E 023°31'0 0.0
2017-Nov-14 02:56N 38°02' E 023°31'0 0.0
2017-Nov-14 02:29N 38°02' E 023°31'0 0.0
2017-Nov-14 01:59N 38°02' E 023°31'0 0.0
2017-Nov-14 01:23N 38°02' E 023°31'0 0.0
2017-Nov-14 00:59N 38°02' E 023°31'0 0.0
2017-Nov-14 00:26N 38°02' E 023°31'0 0.0
2017-Nov-13 23:59N 38°02' E 023°31'0 0.2
2017-Nov-13 23:30N 38°02' E 023°31'0 0.2
2017-Nov-13 22:59N 38°02' E 023°31'0 0.0
2017-Nov-13 22:30N 38°02' E 023°31'0 0.0
2017-Nov-13 21:59N 38°02' E 023°31'  
Track history (hours):
 
Tides and Currents Weather Stations Pressure Air Temp Water Temp Dewpoint Dewpoint Depression Visibility Wind Speed Wind Dir Waves Ship Positions

Christos Vi

Last reported at 2017-Nov-23 11:00 UTC. Time now 2017-Nov-23 11:28 UTC.
Position N 38°02' E 023°36'.

Length 18 m; draft 2.5 m.

Type: Tug. MMSI: 239564600.

Date/timePositionNaut miles runAvg speedWind from/ knotsBaromVisibWave heightAir tempDewpointWater temp
2017-Nov-23 11:00N 38°02' E 023°36'0 0.1
2017-Nov-23 10:30N 38°02' E 023°36'4 7.5
2017-Nov-23 10:00N 38°02' E 023°31'2 2.8
2017-Nov-23 09:18N 38°01' E 023°33'2 6.0
2017-Nov-23 08:56N 38°01' E 023°36'1 1.7
2017-Nov-23 08:31N 38°01' E 023°35'4 6.7
2017-Nov-23 07:58N 38°02' E 023°31'0 0.0
2017-Nov-23 07:25N 38°02' E 023°31'0 0.0
2017-Nov-23 06:58N 38°02' E 023°31'0 0.0
2017-Nov-23 06:28N 38°02' E 023°31'0 0.0
2017-Nov-23 05:58N 38°02' E 023°31'0 0.9
2017-Nov-23 05:30N 38°02' E 023°30'0 0.3
2017-Nov-23 04:11N 38°02' E 023°31'0 1.3
2017-Nov-23 03:55N 38°02' E 023°30'0 0.1
2017-Nov-23 00:34N 38°02' E 023°31'0 7.6
2017-Nov-23 00:30N 38°02' E 023°31'3 6.7
2017-Nov-22 23:59N 38°02' E 023°36'0 0.1
2017-Nov-22 23:29N 38°02' E 023°36'0 0.0
2017-Nov-22 22:59N 38°02' E 023°36'0 0.0
2017-Nov-22 22:29N 38°02' E 023°36'3 7.2
2017-Nov-22 22:00N 38°02' E 023°31'1 0.8
2017-Nov-22 20:55N 38°02' E 023°31'0 0.0
2017-Nov-22 20:25N 38°02' E 023°31'0 1.0
2017-Nov-22 20:00N 38°02' E 023°31'  
2017-Nov-20 00:29N 38°02' E 023°36'0 0.0
2017-Nov-19 23:59N 38°02' E 023°36'0 0.0
2017-Nov-19 23:29N 38°02' E 023°36'0 0.0
2017-Nov-19 22:59N 38°02' E 023°36'0 0.0
2017-Nov-19 22:29N 38°02' E 023°36'0 0.1
2017-Nov-19 21:56N 38°02' E 023°36'0 0.0
2017-Nov-19 17:36N 38°02' E 023°36'0 0.0
2017-Nov-19 17:30N 38°02' E 023°36'0 0.0
2017-Nov-19 17:00N 38°02' E 023°36'0 0.0
2017-Nov-19 16:30N 38°02' E 023°36'0 0.0
2017-Nov-19 16:00N 38°02' E 023°36'0 0.0
2017-Nov-19 15:30N 38°02' E 023°36'0 0.0
2017-Nov-19 15:00N 38°02' E 023°36'0 0.1
2017-Nov-19 08:41N 38°01' E 023°35'0 0.0
2017-Nov-19 00:15N 38°02' E 023°36'0 0.0
2017-Nov-18 16:25N 38°02' E 023°36'0 0.0
2017-Nov-18 15:17N 38°02' E 023°36'0 0.0
2017-Nov-18 10:52N 38°02' E 023°36'0 0.7
2017-Nov-18 10:27N 38°02' E 023°35'0 0.1
2017-Nov-18 09:15N 38°02' E 023°36'0 0.7
2017-Nov-18 09:00N 38°02' E 023°36'0 0.0
2017-Nov-18 02:42N 38°02' E 023°36'0 0.0
2017-Nov-17 11:07N 38°02' E 023°36'0 0.0
2017-Nov-17 10:58N 38°02' E 023°36'0 0.0
2017-Nov-17 10:28N 38°02' E 023°36'0 0.0
2017-Nov-17 09:58N 38°02' E 023°36'0 0.0
2017-Nov-17 09:28N 38°02' E 023°36'0 0.0
2017-Nov-17 08:55N 38°02' E 023°36'0 0.0
2017-Nov-17 08:25N 38°02' E 023°36'0 0.0
2017-Nov-17 08:00N 38°02' E 023°36'0 0.0
2017-Nov-17 07:30N 38°02' E 023°36'0 0.0
2017-Nov-17 07:00N 38°02' E 023°36'0 0.0
2017-Nov-17 06:30N 38°02' E 023°36'0 0.1
2017-Nov-17 05:58N 38°02' E 023°36'0 0.0
2017-Nov-17 05:29N 38°02' E 023°36'0 0.1
2017-Nov-17 04:58N 38°02' E 023°36'0 0.0
2017-Nov-17 04:28N 38°02' E 023°36'0 0.0
2017-Nov-17 03:58N 38°02' E 023°36'0 0.0
2017-Nov-17 03:28N 38°02' E 023°36'0 0.0
2017-Nov-17 02:58N 38°02' E 023°36'0 0.0
2017-Nov-17 02:25N 38°02' E 023°36'0 0.0
2017-Nov-17 01:58N 38°02' E 023°36'0 0.0
2017-Nov-17 01:30N 38°02' E 023°36'0 0.2
2017-Nov-17 00:54N 38°02' E 023°36'0 0.1
2017-Nov-17 00:29N 38°02' E 023°36'0 0.2
2017-Nov-16 23:59N 38°02' E 023°36'0 0.2
2017-Nov-16 23:30N 38°02' E 023°36'0 0.1
2017-Nov-16 22:59N 38°02' E 023°36'0 0.2
2017-Nov-16 22:28N 38°02' E 023°36'0 0.1
2017-Nov-16 20:56N 38°02' E 023°36'0 0.0
2017-Nov-16 20:26N 38°02' E 023°36'0 0.1
2017-Nov-16 19:42N 38°02' E 023°36'0 0.1
2017-Nov-16 18:58N 38°02' E 023°36'0 0.0
2017-Nov-16 18:25N 38°02' E 023°36'0 0.7
2017-Nov-16 17:56N 38°01' E 023°35'0 0.7
2017-Nov-16 17:29N 38°02' E 023°36'0 0.0
2017-Nov-16 16:59N 38°02' E 023°36'0 0.0
2017-Nov-16 16:26N 38°02' E 023°36'0 0.2
2017-Nov-16 15:57N 38°02' E 023°36'0 0.3
2017-Nov-16 15:29N 38°02' E 023°36'0 0.0
2017-Nov-16 14:59N 38°02' E 023°36'0 0.0
2017-Nov-16 14:29N 38°02' E 023°36'0 0.0
2017-Nov-16 13:59N 38°02' E 023°36'0 0.4
2017-Nov-16 13:22N 38°02' E 023°35'0 0.5
2017-Nov-16 12:58N 38°02' E 023°36'0 0.0
2017-Nov-16 12:28N 38°02' E 023°36'0 0.0
2017-Nov-16 11:55N 38°02' E 023°36'0 0.0
2017-Nov-16 11:28N 38°02' E 023°36'0 0.1
2017-Nov-16 11:00N 38°02' E 023°36'0 0.0
2017-Nov-16 10:30N 38°02' E 023°36'0 0.0
2017-Nov-16 09:57N 38°02' E 023°36'0 0.3
2017-Nov-16 09:26N 38°02' E 023°36'0 0.3
2017-Nov-16 08:55N 38°02' E 023°36'0 0.0
2017-Nov-16 08:28N 38°02' E 023°36'0 0.2
2017-Nov-16 08:00N 38°02' E 023°36'0 0.2
2017-Nov-16 07:25N 38°02' E 023°36'0 0.2
2017-Nov-16 06:30N 38°02' E 023°36'0 0.1
2017-Nov-16 05:01N 38°02' E 023°36'0 0.1
2017-Nov-16 04:55N 38°02' E 023°36'0 0.0
2017-Nov-16 04:27N 38°02' E 023°36'0 0.0
2017-Nov-16 04:00N 38°02' E 023°36'0 0.0
2017-Nov-16 03:30N 38°02' E 023°36'0 0.0
2017-Nov-16 03:00N 38°02' E 023°36'0 0.0
2017-Nov-16 02:30N 38°02' E 023°36'0 0.0
2017-Nov-16 02:00N 38°02' E 023°36'0 0.0
2017-Nov-16 01:30N 38°02' E 023°36'0 0.0
2017-Nov-16 01:00N 38°02' E 023°36'0 0.0
2017-Nov-16 00:30N 38°02' E 023°36'0 0.0
2017-Nov-16 00:00N 38°02' E 023°36'0 0.0
2017-Nov-15 23:30N 38°02' E 023°36'0 0.0
2017-Nov-15 23:00N 38°02' E 023°36'0 0.0
2017-Nov-15 22:30N 38°02' E 023°36'0 0.0
2017-Nov-15 22:00N 38°02' E 023°36'0 0.0
2017-Nov-15 21:30N 38°02' E 023°36'0 0.0
2017-Nov-15 21:00N 38°02' E 023°36'0 0.1
2017-Nov-15 20:28N 38°02' E 023°36'0 0.1
2017-Nov-15 19:58N 38°02' E 023°36'0 0.0
2017-Nov-15 19:28N 38°02' E 023°36'0 0.0
2017-Nov-15 18:55N 38°02' E 023°36'0 0.0
2017-Nov-15 18:28N 38°02' E 023°36'0 0.0
2017-Nov-15 17:58N 38°02' E 023°36'0 0.0
2017-Nov-15 17:01N 38°02' E 023°36'0 0.0
2017-Nov-15 16:58N 38°02' E 023°36'0 0.0
2017-Nov-15 16:28N 38°02' E 023°36'0 0.0
2017-Nov-14 16:12N 38°02' E 023°36'0 0.0
2017-Nov-14 16:00N 38°02' E 023°36'0 0.0
2017-Nov-14 15:21N 38°02' E 023°36'0 0.2
2017-Nov-14 15:00N 38°02' E 023°36'0 0.1
2017-Nov-14 14:30N 38°02' E 023°36'0 0.0
2017-Nov-14 14:00N 38°02' E 023°36'0 0.2
2017-Nov-14 13:21N 38°02' E 023°36'0 0.2
2017-Nov-14 12:58N 38°02' E 023°36'3 5.9
2017-Nov-14 12:30N 38°02' E 023°32'1 2.2
2017-Nov-14 11:59N 38°02' E 023°31'0 0.0
2017-Nov-14 11:29N 38°02' E 023°31'0 0.0
2017-Nov-14 10:59N 38°02' E 023°31'0 0.0
2017-Nov-14 10:29N 38°02' E 023°31'1 1.2
2017-Nov-14 09:58N 38°02' E 023°32'3 4.7
2017-Nov-14 09:17N 38°01' E 023°36'0 0.4
2017-Nov-14 08:52N 38°02' E 023°36'0 0.2
2017-Nov-14 08:14N 38°01' E 023°35'0 0.0
2017-Nov-14 08:00N 38°01' E 023°35'0 0.6
2017-Nov-14 07:27N 38°02' E 023°36'0 0.0
2017-Nov-14 06:57N 38°02' E 023°36'0 0.0
2017-Nov-14 06:30N 38°02' E 023°36'1 1.4
2017-Nov-14 05:58N 38°02' E 023°35'3 7.2
2017-Nov-14 05:30N 38°02' E 023°30'0 0.2
2017-Nov-14 04:59N 38°02' E 023°31'0 0.0
2017-Nov-14 04:29N 38°02' E 023°31'0 0.0
2017-Nov-14 03:59N 38°02' E 023°31'0 0.0
2017-Nov-14 03:29N 38°02' E 023°31'0 0.0
2017-Nov-14 02:56N 38°02' E 023°31'0 0.0
2017-Nov-14 02:29N 38°02' E 023°31'0 0.0
2017-Nov-14 01:59N 38°02' E 023°31'0 0.0
2017-Nov-14 01:23N 38°02' E 023°31'0 0.0
2017-Nov-14 00:59N 38°02' E 023°31'0 0.0
2017-Nov-14 00:26N 38°02' E 023°31'0 0.0
2017-Nov-13 23:59N 38°02' E 023°31'0 0.2
2017-Nov-13 23:30N 38°02' E 023°31'0 0.2
2017-Nov-13 22:59N 38°02' E 023°31'0 0.0
2017-Nov-13 22:30N 38°02' E 023°31'0 0.0
2017-Nov-13 21:59N 38°02' E 023°31'  

Dump ship's entire track history